sensor_id;sensor_type;location;lat;lon;timestamp;temperature;humidity
983;DHT22;480;48.124;11.578;2022-11-30T00:00:17;2.70;99.90
983;DHT22;480;48.124;11.578;2022-11-30T00:02:44;2.70;99.90
983;DHT22;480;48.124;11.578;2022-11-30T00:05:14;2.70;99.90
983;DHT22;480;48.124;11.578;2022-11-30T00:07:41;2.70;99.90
983;DHT22;480;48.124;11.578;2022-11-30T00:10:10;2.90;99.90
983;DHT22;480;48.124;11.578;2022-11-30T00:12:38;2.90;99.90
983;DHT22;480;48.124;11.578;2022-11-30T00:15:07;3.00;99.90
983;DHT22;480;48.124;11.578;2022-11-30T00:17:35;2.90;99.90
983;DHT22;480;48.124;11.578;2022-11-30T00:20:02;3.00;99.90
983;DHT22;480;48.124;11.578;2022-11-30T00:22:29;2.90;99.90
983;DHT22;480;48.124;11.578;2022-11-30T00:24:56;2.90;99.90
983;DHT22;480;48.124;11.578;2022-11-30T00:27:26;2.90;99.90
983;DHT22;480;48.124;11.578;2022-11-30T00:29:53;2.90;99.90
983;DHT22;480;48.124;11.578;2022-11-30T00:32:21;2.90;99.90
983;DHT22;480;48.124;11.578;2022-11-30T00:34:47;2.90;99.90
983;DHT22;480;48.124;11.578;2022-11-30T00:37:14;2.90;99.90
983;DHT22;480;48.124;11.578;2022-11-30T00:39:41;3.00;99.90
983;DHT22;480;48.124;11.578;2022-11-30T00:42:08;3.20;99.90
983;DHT22;480;48.124;11.578;2022-11-30T00:44:37;3.00;99.90
983;DHT22;480;48.124;11.578;2022-11-30T00:47:04;3.20;99.90
983;DHT22;480;48.124;11.578;2022-11-30T00:49:31;3.20;99.90
983;DHT22;480;48.124;11.578;2022-11-30T00:51:58;3.10;99.90
983;DHT22;480;48.124;11.578;2022-11-30T00:54:25;3.10;99.90
983;DHT22;480;48.124;11.578;2022-11-30T00:56:52;3.20;99.90
983;DHT22;480;48.124;11.578;2022-11-30T00:59:19;3.10;99.90
983;DHT22;480;48.124;11.578;2022-11-30T01:01:48;2.90;99.90
983;DHT22;480;48.124;11.578;2022-11-30T01:04:15;3.00;99.90
983;DHT22;480;48.124;11.578;2022-11-30T01:06:42;2.80;99.90
983;DHT22;480;48.124;11.578;2022-11-30T01:09:09;2.90;99.90
983;DHT22;480;48.124;11.578;2022-11-30T01:11:36;2.90;99.90
983;DHT22;480;48.124;11.578;2022-11-30T01:14:03;3.00;99.90
983;DHT22;480;48.124;11.578;2022-11-30T01:16:32;3.10;99.90
983;DHT22;480;48.124;11.578;2022-11-30T01:19:03;3.00;99.90
983;DHT22;480;48.124;11.578;2022-11-30T01:21:31;2.80;99.90
983;DHT22;480;48.124;11.578;2022-11-30T01:23:58;2.90;99.90
983;DHT22;480;48.124;11.578;2022-11-30T01:26:25;3.00;99.90
983;DHT22;480;48.124;11.578;2022-11-30T01:28:53;3.00;99.90
983;DHT22;480;48.124;11.578;2022-11-30T01:31:22;2.90;99.90
983;DHT22;480;48.124;11.578;2022-11-30T01:33:50;3.00;99.90
983;DHT22;480;48.124;11.578;2022-11-30T01:36:20;2.80;99.90
983;DHT22;480;48.124;11.578;2022-11-30T01:38:49;2.80;99.90
983;DHT22;480;48.124;11.578;2022-11-30T01:41:20;2.90;99.90
983;DHT22;480;48.124;11.578;2022-11-30T01:43:49;2.80;99.90
983;DHT22;480;48.124;11.578;2022-11-30T01:46:24;2.80;99.90
983;DHT22;480;48.124;11.578;2022-11-30T01:48:57;2.80;99.90
983;DHT22;480;48.124;11.578;2022-11-30T01:51:30;2.80;99.90
983;DHT22;480;48.124;11.578;2022-11-30T01:53:58;2.80;99.90
983;DHT22;480;48.124;11.578;2022-11-30T01:56:26;2.70;99.90
983;DHT22;480;48.124;11.578;2022-11-30T01:58:53;2.90;99.90
983;DHT22;480;48.124;11.578;2022-11-30T02:01:20;2.80;99.90
983;DHT22;480;48.124;11.578;2022-11-30T02:03:52;2.80;99.90
983;DHT22;480;48.124;11.578;2022-11-30T02:06:22;2.70;99.90
983;DHT22;480;48.124;11.578;2022-11-30T02:08:52;2.70;99.90
983;DHT22;480;48.124;11.578;2022-11-30T02:11:20;2.70;99.90
983;DHT22;480;48.124;11.578;2022-11-30T02:14:04;2.60;99.90
983;DHT22;480;48.124;11.578;2022-11-30T02:16:38;2.70;99.90
983;DHT22;480;48.124;11.578;2022-11-30T02:19:31;2.70;99.90
983;DHT22;480;48.124;11.578;2022-11-30T02:22:08;2.80;99.90
983;DHT22;480;48.124;11.578;2022-11-30T02:24:52;3.00;99.90
983;DHT22;480;48.124;11.578;2022-11-30T02:27:31;3.10;99.90
983;DHT22;480;48.124;11.578;2022-11-30T02:30:04;2.90;99.90
983;DHT22;480;48.124;11.578;2022-11-30T02:32:36;3.00;99.90
983;DHT22;480;48.124;11.578;2022-11-30T02:35:05;2.80;99.90
983;DHT22;480;48.124;11.578;2022-11-30T02:37:34;2.70;99.90
983;DHT22;480;48.124;11.578;2022-11-30T02:40:07;2.70;99.90
983;DHT22;480;48.124;11.578;2022-11-30T02:42:34;2.70;99.90
983;DHT22;480;48.124;11.578;2022-11-30T02:45:03;2.70;99.90
983;DHT22;480;48.124;11.578;2022-11-30T02:47:35;2.70;99.90
983;DHT22;480;48.124;11.578;2022-11-30T02:50:09;2.70;99.90
983;DHT22;480;48.124;11.578;2022-11-30T02:52:37;2.70;99.90
983;DHT22;480;48.124;11.578;2022-11-30T02:55:07;2.70;99.90
983;DHT22;480;48.124;11.578;2022-11-30T02:57:34;2.90;99.90
983;DHT22;480;48.124;11.578;2022-11-30T03:00:06;3.00;99.90
983;DHT22;480;48.124;11.578;2022-11-30T03:02:35;3.10;99.90
983;DHT22;480;48.124;11.578;2022-11-30T03:05:02;3.00;99.90
983;DHT22;480;48.124;11.578;2022-11-30T03:07:29;3.10;99.90
983;DHT22;480;48.124;11.578;2022-11-30T03:09:56;2.90;99.90
983;DHT22;480;48.124;11.578;2022-11-30T03:12:23;2.90;99.90
983;DHT22;480;48.124;11.578;2022-11-30T03:14:52;2.80;99.90
983;DHT22;480;48.124;11.578;2022-11-30T03:17:20;2.80;99.90
983;DHT22;480;48.124;11.578;2022-11-30T03:19:47;2.70;99.90
983;DHT22;480;48.124;11.578;2022-11-30T03:22:14;2.80;99.90
983;DHT22;480;48.124;11.578;2022-11-30T03:24:41;3.00;99.90
983;DHT22;480;48.124;11.578;2022-11-30T03:27:08;3.00;99.90
983;DHT22;480;48.124;11.578;2022-11-30T03:29:35;2.90;99.90
983;DHT22;480;48.124;11.578;2022-11-30T03:32:02;2.70;99.90
983;DHT22;480;48.124;11.578;2022-11-30T03:34:33;2.70;99.90
983;DHT22;480;48.124;11.578;2022-11-30T03:37:00;2.80;99.90
983;DHT22;480;48.124;11.578;2022-11-30T03:39:27;3.00;99.90
983;DHT22;480;48.124;11.578;2022-11-30T03:41:54;3.10;99.90
983;DHT22;480;48.124;11.578;2022-11-30T03:44:21;3.30;99.90
983;DHT22;480;48.124;11.578;2022-11-30T03:46:48;3.50;99.90
983;DHT22;480;48.124;11.578;2022-11-30T03:49:15;3.60;99.90
983;DHT22;480;48.124;11.578;2022-11-30T03:51:43;3.70;99.90
983;DHT22;480;48.124;11.578;2022-11-30T03:54:10;3.60;99.90
983;DHT22;480;48.124;11.578;2022-11-30T03:56:37;3.40;99.90
983;DHT22;480;48.124;11.578;2022-11-30T03:59:04;3.50;99.90
983;DHT22;480;48.124;11.578;2022-11-30T04:01:31;3.50;99.90
983;DHT22;480;48.124;11.578;2022-11-30T04:03:58;3.50;99.90
983;DHT22;480;48.124;11.578;2022-11-30T04:06:25;3.60;99.90
983;DHT22;480;48.124;11.578;2022-11-30T04:08:53;3.60;99.90
983;DHT22;480;48.124;11.578;2022-11-30T04:11:20;3.80;99.90
983;DHT22;480;48.124;11.578;2022-11-30T04:13:47;3.90;99.90
983;DHT22;480;48.124;11.578;2022-11-30T04:16:14;4.10;99.90
983;DHT22;480;48.124;11.578;2022-11-30T04:18:41;4.00;99.90
983;DHT22;480;48.124;11.578;2022-11-30T04:21:09;3.90;99.90
983;DHT22;480;48.124;11.578;2022-11-30T04:23:37;3.50;99.90
983;DHT22;480;48.124;11.578;2022-11-30T04:26:09;3.60;99.90
983;DHT22;480;48.124;11.578;2022-11-30T04:28:36;3.40;99.90
983;DHT22;480;48.124;11.578;2022-11-30T04:31:03;3.50;99.90
983;DHT22;480;48.124;11.578;2022-11-30T04:33:30;3.50;99.90
983;DHT22;480;48.124;11.578;2022-11-30T04:36:00;3.60;99.90
983;DHT22;480;48.124;11.578;2022-11-30T04:38:28;3.60;99.90
983;DHT22;480;48.124;11.578;2022-11-30T04:40:56;3.70;99.90
983;DHT22;480;48.124;11.578;2022-11-30T04:43:25;3.60;99.90
983;DHT22;480;48.124;11.578;2022-11-30T04:45:52;3.80;99.90
983;DHT22;480;48.124;11.578;2022-11-30T04:48:19;3.80;99.90
983;DHT22;480;48.124;11.578;2022-11-30T04:50:46;3.70;99.90
983;DHT22;480;48.124;11.578;2022-11-30T04:53:13;3.80;99.90
983;DHT22;480;48.124;11.578;2022-11-30T04:55:40;3.80;99.90
983;DHT22;480;48.124;11.578;2022-11-30T04:58:07;3.70;99.90
983;DHT22;480;48.124;11.578;2022-11-30T05:00:36;3.70;99.90
983;DHT22;480;48.124;11.578;2022-11-30T05:03:03;3.60;99.90
983;DHT22;480;48.124;11.578;2022-11-30T05:05:30;3.60;99.90
983;DHT22;480;48.124;11.578;2022-11-30T05:07:58;3.60;99.90
983;DHT22;480;48.124;11.578;2022-11-30T05:10:26;3.60;99.90
983;DHT22;480;48.124;11.578;2022-11-30T05:12:53;3.60;99.90
983;DHT22;480;48.124;11.578;2022-11-30T05:15:20;3.60;99.90
983;DHT22;480;48.124;11.578;2022-11-30T05:17:49;3.70;99.90
983;DHT22;480;48.124;11.578;2022-11-30T05:20:16;3.70;99.90
983;DHT22;480;48.124;11.578;2022-11-30T05:22:43;3.90;99.90
983;DHT22;480;48.124;11.578;2022-11-30T05:25:10;4.00;99.90
983;DHT22;480;48.124;11.578;2022-11-30T05:27:37;3.90;99.90
983;DHT22;480;48.124;11.578;2022-11-30T05:30:05;4.00;99.90
983;DHT22;480;48.124;11.578;2022-11-30T05:32:32;3.90;99.90
983;DHT22;480;48.124;11.578;2022-11-30T05:35:01;4.00;99.90
983;DHT22;480;48.124;11.578;2022-11-30T05:37:28;4.10;99.90
983;DHT22;480;48.124;11.578;2022-11-30T05:39:55;4.10;99.90
983;DHT22;480;48.124;11.578;2022-11-30T05:42:22;4.10;99.90
983;DHT22;480;48.124;11.578;2022-11-30T05:44:49;4.20;99.90
983;DHT22;480;48.124;11.578;2022-11-30T05:47:16;3.90;99.90
983;DHT22;480;48.124;11.578;2022-11-30T05:49:43;4.10;99.90
983;DHT22;480;48.124;11.578;2022-11-30T05:52:12;4.00;99.90
983;DHT22;480;48.124;11.578;2022-11-30T05:54:39;3.90;99.90
983;DHT22;480;48.124;11.578;2022-11-30T05:57:05;3.80;99.90
983;DHT22;480;48.124;11.578;2022-11-30T05:59:32;4.00;99.90
983;DHT22;480;48.124;11.578;2022-11-30T06:01:59;4.00;99.90
983;DHT22;480;48.124;11.578;2022-11-30T06:04:26;4.00;99.90
983;DHT22;480;48.124;11.578;2022-11-30T06:06:53;3.90;99.90
983;DHT22;480;48.124;11.578;2022-11-30T06:09:22;3.90;99.90
983;DHT22;480;48.124;11.578;2022-11-30T06:11:49;3.80;99.90
983;DHT22;480;48.124;11.578;2022-11-30T06:14:16;3.70;99.90
983;DHT22;480;48.124;11.578;2022-11-30T06:16:44;3.70;99.90
983;DHT22;480;48.124;11.578;2022-11-30T06:19:10;3.80;99.90
983;DHT22;480;48.124;11.578;2022-11-30T06:21:37;3.80;99.90
983;DHT22;480;48.124;11.578;2022-11-30T06:24:05;3.80;99.90
983;DHT22;480;48.124;11.578;2022-11-30T06:26:33;3.80;99.90
983;DHT22;480;48.124;11.578;2022-11-30T06:29:01;3.90;99.90
983;DHT22;480;48.124;11.578;2022-11-30T06:31:30;3.80;99.90
983;DHT22;480;48.124;11.578;2022-11-30T06:33:57;4.10;99.90
983;DHT22;480;48.124;11.578;2022-11-30T06:36:24;4.00;99.90
983;DHT22;480;48.124;11.578;2022-11-30T06:38:51;3.90;99.90
983;DHT22;480;48.124;11.578;2022-11-30T06:41:18;3.90;99.90
983;DHT22;480;48.124;11.578;2022-11-30T06:43:46;4.00;99.90
983;DHT22;480;48.124;11.578;2022-11-30T06:46:13;4.10;99.90
983;DHT22;480;48.124;11.578;2022-11-30T06:48:40;3.80;99.90
983;DHT22;480;48.124;11.578;2022-11-30T06:51:08;3.80;99.90
983;DHT22;480;48.124;11.578;2022-11-30T06:53:36;3.60;99.90
983;DHT22;480;48.124;11.578;2022-11-30T06:56:04;3.60;99.90
983;DHT22;480;48.124;11.578;2022-11-30T06:58:32;3.70;99.90
983;DHT22;480;48.124;11.578;2022-11-30T07:01:00;3.70;99.90
983;DHT22;480;48.124;11.578;2022-11-30T07:03:27;3.70;99.90
983;DHT22;480;48.124;11.578;2022-11-30T07:05:54;3.80;99.90
983;DHT22;480;48.124;11.578;2022-11-30T07:08:21;3.90;99.90
983;DHT22;480;48.124;11.578;2022-11-30T07:10:48;3.80;99.90
983;DHT22;480;48.124;11.578;2022-11-30T07:13:17;3.70;99.90
983;DHT22;480;48.124;11.578;2022-11-30T07:15:44;3.80;99.90
983;DHT22;480;48.124;11.578;2022-11-30T07:18:13;3.90;99.90
983;DHT22;480;48.124;11.578;2022-11-30T07:20:40;3.80;99.90
983;DHT22;480;48.124;11.578;2022-11-30T07:23:07;3.90;99.90
983;DHT22;480;48.124;11.578;2022-11-30T07:25:53;3.90;99.90
983;DHT22;480;48.124;11.578;2022-11-30T07:28:32;4.10;99.90
983;DHT22;480;48.124;11.578;2022-11-30T07:30:59;4.00;99.90
983;DHT22;480;48.124;11.578;2022-11-30T07:33:30;4.00;99.90
983;DHT22;480;48.124;11.578;2022-11-30T07:35:57;3.80;99.90
983;DHT22;480;48.124;11.578;2022-11-30T07:38:24;3.90;99.90
983;DHT22;480;48.124;11.578;2022-11-30T07:40:51;3.80;99.90
983;DHT22;480;48.124;11.578;2022-11-30T07:43:18;3.80;99.90
983;DHT22;480;48.124;11.578;2022-11-30T07:45:50;3.70;99.90
983;DHT22;480;48.124;11.578;2022-11-30T07:48:17;3.50;99.90
983;DHT22;480;48.124;11.578;2022-11-30T07:50:46;3.60;99.90
983;DHT22;480;48.124;11.578;2022-11-30T07:53:14;3.60;99.90
983;DHT22;480;48.124;11.578;2022-11-30T07:55:41;3.70;99.90
983;DHT22;480;48.124;11.578;2022-11-30T07:58:08;3.80;99.90
983;DHT22;480;48.124;11.578;2022-11-30T08:00:36;3.80;99.90
983;DHT22;480;48.124;11.578;2022-11-30T08:03:03;4.00;99.90
983;DHT22;480;48.124;11.578;2022-11-30T08:05:30;3.70;99.90
983;DHT22;480;48.124;11.578;2022-11-30T08:07:58;3.70;99.90
983;DHT22;480;48.124;11.578;2022-11-30T08:10:25;3.60;99.90
983;DHT22;480;48.124;11.578;2022-11-30T08:12:53;3.70;99.90
983;DHT22;480;48.124;11.578;2022-11-30T08:15:20;3.70;99.90
983;DHT22;480;48.124;11.578;2022-11-30T08:17:47;3.70;99.90
983;DHT22;480;48.124;11.578;2022-11-30T08:20:20;3.60;99.90
983;DHT22;480;48.124;11.578;2022-11-30T08:22:48;3.70;99.90
983;DHT22;480;48.124;11.578;2022-11-30T08:25:18;3.60;99.90
983;DHT22;480;48.124;11.578;2022-11-30T08:27:45;3.70;99.90
983;DHT22;480;48.124;11.578;2022-11-30T08:30:12;3.90;99.90
983;DHT22;480;48.124;11.578;2022-11-30T08:32:39;3.90;99.90
983;DHT22;480;48.124;11.578;2022-11-30T08:35:07;4.00;99.90
983;DHT22;480;48.124;11.578;2022-11-30T08:37:35;4.00;99.90
983;DHT22;480;48.124;11.578;2022-11-30T08:40:04;4.20;99.90
983;DHT22;480;48.124;11.578;2022-11-30T08:42:33;4.30;99.90
983;DHT22;480;48.124;11.578;2022-11-30T08:45:00;4.20;99.90
983;DHT22;480;48.124;11.578;2022-11-30T08:47:27;4.30;99.90
983;DHT22;480;48.124;11.578;2022-11-30T08:49:55;4.40;99.90
983;DHT22;480;48.124;11.578;2022-11-30T08:52:22;4.20;99.90
983;DHT22;480;48.124;11.578;2022-11-30T08:54:49;4.30;99.90
983;DHT22;480;48.124;11.578;2022-11-30T08:57:17;4.50;99.90
983;DHT22;480;48.124;11.578;2022-11-30T08:59:46;4.50;99.90
983;DHT22;480;48.124;11.578;2022-11-30T09:02:15;4.50;99.90
983;DHT22;480;48.124;11.578;2022-11-30T09:04:42;4.70;99.90
983;DHT22;480;48.124;11.578;2022-11-30T09:07:10;4.90;99.90
983;DHT22;480;48.124;11.578;2022-11-30T09:09:37;4.80;99.90
983;DHT22;480;48.124;11.578;2022-11-30T09:12:05;4.70;99.90
983;DHT22;480;48.124;11.578;2022-11-30T09:14:32;4.70;99.90
983;DHT22;480;48.124;11.578;2022-11-30T09:17:01;4.70;99.90
983;DHT22;480;48.124;11.578;2022-11-30T09:19:28;4.40;99.90
983;DHT22;480;48.124;11.578;2022-11-30T09:21:55;4.00;99.90
983;DHT22;480;48.124;11.578;2022-11-30T09:24:23;4.10;99.90
983;DHT22;480;48.124;11.578;2022-11-30T09:26:50;4.40;99.90
983;DHT22;480;48.124;11.578;2022-11-30T09:29:17;4.50;99.90
983;DHT22;480;48.124;11.578;2022-11-30T09:31:44;4.20;99.90
983;DHT22;480;48.124;11.578;2022-11-30T09:34:12;4.20;99.90
983;DHT22;480;48.124;11.578;2022-11-30T09:36:39;4.50;99.90
983;DHT22;480;48.124;11.578;2022-11-30T09:39:08;4.70;99.90
983;DHT22;480;48.124;11.578;2022-11-30T09:41:59;4.60;99.90
983;DHT22;480;48.124;11.578;2022-11-30T09:44:33;4.80;99.90
983;DHT22;480;48.124;11.578;2022-11-30T09:47:11;5.00;99.90
983;DHT22;480;48.124;11.578;2022-11-30T09:49:47;4.80;99.90
983;DHT22;480;48.124;11.578;2022-11-30T09:52:17;4.70;99.90
983;DHT22;480;48.124;11.578;2022-11-30T09:54:46;4.80;99.90
983;DHT22;480;48.124;11.578;2022-11-30T09:57:22;4.80;99.90
983;DHT22;480;48.124;11.578;2022-11-30T09:59:54;5.00;99.90
983;DHT22;480;48.124;11.578;2022-11-30T10:02:25;5.20;99.90
983;DHT22;480;48.124;11.578;2022-11-30T10:04:55;5.20;99.90
983;DHT22;480;48.124;11.578;2022-11-30T10:07:35;5.30;99.90
983;DHT22;480;48.124;11.578;2022-11-30T10:10:13;5.20;99.90
983;DHT22;480;48.124;11.578;2022-11-30T10:12:48;5.20;99.90
983;DHT22;480;48.124;11.578;2022-11-30T10:15:29;5.10;99.90
983;DHT22;480;48.124;11.578;2022-11-30T10:18:06;5.30;99.90
983;DHT22;480;48.124;11.578;2022-11-30T10:20:59;5.30;99.90
983;DHT22;480;48.124;11.578;2022-11-30T10:24:00;5.20;99.90
983;DHT22;480;48.124;11.578;2022-11-30T10:26:32;5.40;99.90
983;DHT22;480;48.124;11.578;2022-11-30T10:29:11;5.30;99.90
983;DHT22;480;48.124;11.578;2022-11-30T10:31:40;5.50;99.90
983;DHT22;480;48.124;11.578;2022-11-30T10:34:18;5.50;99.90
983;DHT22;480;48.124;11.578;2022-11-30T10:36:52;5.50;99.90
983;DHT22;480;48.124;11.578;2022-11-30T10:39:23;5.50;99.90
983;DHT22;480;48.124;11.578;2022-11-30T10:41:55;5.50;99.90
983;DHT22;480;48.124;11.578;2022-11-30T10:44:28;4.90;99.90
983;DHT22;480;48.124;11.578;2022-11-30T10:46:59;5.00;99.90
983;DHT22;480;48.124;11.578;2022-11-30T10:49:28;4.90;99.90
983;DHT22;480;48.124;11.578;2022-11-30T10:52:02;4.90;99.90
983;DHT22;480;48.124;11.578;2022-11-30T10:54:31;4.90;99.90
983;DHT22;480;48.124;11.578;2022-11-30T10:57:01;5.00;99.90
983;DHT22;480;48.124;11.578;2022-11-30T10:59:37;5.10;99.90
983;DHT22;480;48.124;11.578;2022-11-30T11:02:33;5.30;99.90
983;DHT22;480;48.124;11.578;2022-11-30T11:05:08;5.20;99.90
983;DHT22;480;48.124;11.578;2022-11-30T11:07:52;5.20;99.90
983;DHT22;480;48.124;11.578;2022-11-30T11:10:24;5.20;99.90
983;DHT22;480;48.124;11.578;2022-11-30T11:12:54;5.10;99.90
983;DHT22;480;48.124;11.578;2022-11-30T11:15:23;5.20;99.90
983;DHT22;480;48.124;11.578;2022-11-30T11:17:51;5.30;99.90
983;DHT22;480;48.124;11.578;2022-11-30T11:20:31;5.30;99.90
983;DHT22;480;48.124;11.578;2022-11-30T11:23:00;5.40;99.90
983;DHT22;480;48.124;11.578;2022-11-30T11:25:32;5.60;99.90
983;DHT22;480;48.124;11.578;2022-11-30T11:28:04;5.80;99.90
983;DHT22;480;48.124;11.578;2022-11-30T11:30:35;5.60;99.90
983;DHT22;480;48.124;11.578;2022-11-30T11:33:16;5.40;99.90
983;DHT22;480;48.124;11.578;2022-11-30T11:35:44;5.00;99.90
983;DHT22;480;48.124;11.578;2022-11-30T11:38:24;5.10;99.90
983;DHT22;480;48.124;11.578;2022-11-30T11:40:54;5.30;99.90
983;DHT22;480;48.124;11.578;2022-11-30T11:43:24;5.30;99.90
983;DHT22;480;48.124;11.578;2022-11-30T11:45:54;5.50;99.90
983;DHT22;480;48.124;11.578;2022-11-30T11:48:31;5.40;99.90
983;DHT22;480;48.124;11.578;2022-11-30T11:51:00;5.60;99.90
983;DHT22;480;48.124;11.578;2022-11-30T11:53:43;5.40;99.90
983;DHT22;480;48.124;11.578;2022-11-30T11:56:14;5.50;99.90
983;DHT22;480;48.124;11.578;2022-11-30T11:58:46;5.20;99.90
983;DHT22;480;48.124;11.578;2022-11-30T12:01:20;5.30;99.90
983;DHT22;480;48.124;11.578;2022-11-30T12:03:59;5.40;99.90
983;DHT22;480;48.124;11.578;2022-11-30T12:06:31;5.30;99.90
983;DHT22;480;48.124;11.578;2022-11-30T12:09:04;5.30;99.90
983;DHT22;480;48.124;11.578;2022-11-30T12:11:40;5.20;99.90
983;DHT22;480;48.124;11.578;2022-11-30T12:14:11;4.80;99.90
983;DHT22;480;48.124;11.578;2022-11-30T12:16:55;4.40;99.90
983;DHT22;480;48.124;11.578;2022-11-30T12:19:31;4.50;99.90
983;DHT22;480;48.124;11.578;2022-11-30T12:22:06;4.70;99.90
983;DHT22;480;48.124;11.578;2022-11-30T12:24:53;4.50;99.90
983;DHT22;480;48.124;11.578;2022-11-30T12:27:29;4.70;99.90
983;DHT22;480;48.124;11.578;2022-11-30T12:30:05;4.70;99.90
983;DHT22;480;48.124;11.578;2022-11-30T12:32:49;4.70;99.90
983;DHT22;480;48.124;11.578;2022-11-30T12:35:24;4.50;99.90
983;DHT22;480;48.124;11.578;2022-11-30T12:38:05;4.50;99.90
983;DHT22;480;48.124;11.578;2022-11-30T12:40:42;4.70;99.90
983;DHT22;480;48.124;11.578;2022-11-30T12:43:17;4.80;99.90
983;DHT22;480;48.124;11.578;2022-11-30T12:45:48;5.00;99.90
983;DHT22;480;48.124;11.578;2022-11-30T12:48:25;4.80;99.90
983;DHT22;480;48.124;11.578;2022-11-30T12:51:06;4.90;99.90
983;DHT22;480;48.124;11.578;2022-11-30T12:53:39;5.10;99.90
983;DHT22;480;48.124;11.578;2022-11-30T12:56:19;4.80;99.90
983;DHT22;480;48.124;11.578;2022-11-30T12:58:54;5.10;99.90
983;DHT22;480;48.124;11.578;2022-11-30T13:01:36;5.10;99.90
983;DHT22;480;48.124;11.578;2022-11-30T13:04:12;5.00;99.90
983;DHT22;480;48.124;11.578;2022-11-30T13:06:44;5.10;99.90
983;DHT22;480;48.124;11.578;2022-11-30T13:09:16;5.30;99.90
983;DHT22;480;48.124;11.578;2022-11-30T13:11:51;5.20;99.90
983;DHT22;480;48.124;11.578;2022-11-30T13:14:22;5.10;99.90
983;DHT22;480;48.124;11.578;2022-11-30T13:16:58;5.20;99.90
983;DHT22;480;48.124;11.578;2022-11-30T13:19:39;5.20;99.90
983;DHT22;480;48.124;11.578;2022-11-30T13:22:13;4.90;99.90
983;DHT22;480;48.124;11.578;2022-11-30T13:24:44;4.80;99.90
983;DHT22;480;48.124;11.578;2022-11-30T13:27:20;4.90;99.90
983;DHT22;480;48.124;11.578;2022-11-30T13:29:57;5.00;99.90
983;DHT22;480;48.124;11.578;2022-11-30T13:32:27;5.00;99.90
983;DHT22;480;48.124;11.578;2022-11-30T13:38:00;4.70;99.90
983;DHT22;480;48.124;11.578;2022-11-30T13:40:28;4.80;99.90
983;DHT22;480;48.124;11.578;2022-11-30T13:42:57;4.60;99.90
983;DHT22;480;48.124;11.578;2022-11-30T13:45:28;4.50;99.90
983;DHT22;480;48.124;11.578;2022-11-30T13:47:57;4.60;99.90
983;DHT22;480;48.124;11.578;2022-11-30T13:50:33;4.50;99.90
983;DHT22;480;48.124;11.578;2022-11-30T13:53:30;4.60;99.90
983;DHT22;480;48.124;11.578;2022-11-30T14:01:48;5.00;99.90
983;DHT22;480;48.124;11.578;2022-11-30T14:04:32;4.80;99.90
983;DHT22;480;48.124;11.578;2022-11-30T14:06:59;4.90;99.90
983;DHT22;480;48.124;11.578;2022-11-30T14:09:55;5.00;99.90
983;DHT22;480;48.124;11.578;2022-11-30T14:12:56;4.80;99.90
983;DHT22;480;48.124;11.578;2022-11-30T14:15:55;4.90;99.90
983;DHT22;480;48.124;11.578;2022-11-30T14:18:38;4.80;99.90
983;DHT22;480;48.124;11.578;2022-11-30T14:21:25;4.80;99.90
983;DHT22;480;48.124;11.578;2022-11-30T14:23:56;4.80;99.90
983;DHT22;480;48.124;11.578;2022-11-30T14:26:28;4.80;99.90
983;DHT22;480;48.124;11.578;2022-11-30T14:29:09;4.90;99.90
983;DHT22;480;48.124;11.578;2022-11-30T14:31:48;4.70;99.90
983;DHT22;480;48.124;11.578;2022-11-30T14:34:20;4.70;99.90
983;DHT22;480;48.124;11.578;2022-11-30T14:36:52;4.60;99.90
983;DHT22;480;48.124;11.578;2022-11-30T14:39:25;4.60;99.90
983;DHT22;480;48.124;11.578;2022-11-30T14:41:53;4.50;99.90
983;DHT22;480;48.124;11.578;2022-11-30T14:44:20;4.50;99.90
983;DHT22;480;48.124;11.578;2022-11-30T14:46:47;4.60;99.90
983;DHT22;480;48.124;11.578;2022-11-30T14:49:15;4.80;99.90
983;DHT22;480;48.124;11.578;2022-11-30T14:51:46;4.80;99.90
983;DHT22;480;48.124;11.578;2022-11-30T14:54:30;4.80;99.90
983;DHT22;480;48.124;11.578;2022-11-30T14:57:07;4.60;99.90
983;DHT22;480;48.124;11.578;2022-11-30T14:59:45;4.50;99.90
983;DHT22;480;48.124;11.578;2022-11-30T15:02:26;4.40;99.90
983;DHT22;480;48.124;11.578;2022-11-30T15:04:54;4.30;99.90
983;DHT22;480;48.124;11.578;2022-11-30T15:07:24;4.20;99.90
983;DHT22;480;48.124;11.578;2022-11-30T15:10:00;4.30;99.90
983;DHT22;480;48.124;11.578;2022-11-30T15:12:29;4.20;99.90
983;DHT22;480;48.124;11.578;2022-11-30T15:15:04;4.30;99.90
983;DHT22;480;48.124;11.578;2022-11-30T15:17:47;4.20;99.90
983;DHT22;480;48.124;11.578;2022-11-30T15:20:17;4.30;99.90
983;DHT22;480;48.124;11.578;2022-11-30T15:22:46;4.30;99.90
983;DHT22;480;48.124;11.578;2022-11-30T15:25:14;4.20;99.90
983;DHT22;480;48.124;11.578;2022-11-30T15:27:42;4.20;99.90
983;DHT22;480;48.124;11.578;2022-11-30T15:30:13;4.30;99.90
983;DHT22;480;48.124;11.578;2022-11-30T15:32:43;4.20;99.90
983;DHT22;480;48.124;11.578;2022-11-30T15:35:18;4.20;99.90
983;DHT22;480;48.124;11.578;2022-11-30T15:37:47;4.10;99.90
983;DHT22;480;48.124;11.578;2022-11-30T15:40:20;4.10;99.90
983;DHT22;480;48.124;11.578;2022-11-30T15:42:48;4.10;99.90
983;DHT22;480;48.124;11.578;2022-11-30T15:45:20;4.20;99.90
983;DHT22;480;48.124;11.578;2022-11-30T15:47:48;3.90;99.90
983;DHT22;480;48.124;11.578;2022-11-30T15:50:37;3.50;99.90
983;DHT22;480;48.124;11.578;2022-11-30T15:53:24;3.50;99.90
983;DHT22;480;48.124;11.578;2022-11-30T15:55:53;3.50;99.90
983;DHT22;480;48.124;11.578;2022-11-30T15:58:27;3.40;99.90
983;DHT22;480;48.124;11.578;2022-11-30T16:00:59;3.30;99.90
983;DHT22;480;48.124;11.578;2022-11-30T16:03:28;3.30;99.90
983;DHT22;480;48.124;11.578;2022-11-30T16:05:56;3.50;99.90
983;DHT22;480;48.124;11.578;2022-11-30T16:08:26;3.50;99.90
983;DHT22;480;48.124;11.578;2022-11-30T16:10:53;3.40;99.90
983;DHT22;480;48.124;11.578;2022-11-30T16:13:21;3.30;99.90
983;DHT22;480;48.124;11.578;2022-11-30T16:15:50;3.30;99.90
983;DHT22;480;48.124;11.578;2022-11-30T16:18:19;3.10;99.90
983;DHT22;480;48.124;11.578;2022-11-30T16:20:48;3.00;99.90
983;DHT22;480;48.124;11.578;2022-11-30T16:23:17;3.10;99.90
983;DHT22;480;48.124;11.578;2022-11-30T16:25:47;3.00;99.90
983;DHT22;480;48.124;11.578;2022-11-30T16:28:15;3.00;99.90
983;DHT22;480;48.124;11.578;2022-11-30T16:30:43;3.10;99.90
983;DHT22;480;48.124;11.578;2022-11-30T16:33:12;3.40;99.90
983;DHT22;480;48.124;11.578;2022-11-30T16:35:43;3.50;99.90
983;DHT22;480;48.124;11.578;2022-11-30T16:38:12;3.60;99.90
983;DHT22;480;48.124;11.578;2022-11-30T16:40:39;3.60;99.90
983;DHT22;480;48.124;11.578;2022-11-30T16:43:09;3.60;99.90
983;DHT22;480;48.124;11.578;2022-11-30T16:45:37;3.50;99.90
983;DHT22;480;48.124;11.578;2022-11-30T16:48:04;3.50;99.90
983;DHT22;480;48.124;11.578;2022-11-30T16:50:32;3.40;99.90
983;DHT22;480;48.124;11.578;2022-11-30T16:52:59;3.30;99.90
983;DHT22;480;48.124;11.578;2022-11-30T16:55:29;3.30;99.90
983;DHT22;480;48.124;11.578;2022-11-30T16:57:56;3.50;99.90
983;DHT22;480;48.124;11.578;2022-11-30T17:00:26;3.60;99.90
983;DHT22;480;48.124;11.578;2022-11-30T17:02:56;3.50;99.90
983;DHT22;480;48.124;11.578;2022-11-30T17:05:25;3.50;99.90